sensor_id;sensor_type;location;lat;lon;timestamp;P1;durP1;ratioP1;P2;durP2;ratioP2
7021;SDS011;3552;42.664;23.406;2022-10-22T00:02:00;55.17;;;26.97;;
7021;SDS011;3552;42.664;23.406;2022-10-22T00:04:28;45.63;;;23.57;;
7021;SDS011;3552;42.664;23.406;2022-10-22T00:06:55;35.10;;;19.30;;
7021;SDS011;3552;42.664;23.406;2022-10-22T00:09:22;29.60;;;15.57;;
7021;SDS011;3552;42.664;23.406;2022-10-22T00:11:48;28.13;;;17.27;;
7021;SDS011;3552;42.664;23.406;2022-10-22T00:14:15;30.00;;;17.87;;
7021;SDS011;3552;42.664;23.406;2022-10-22T00:16:42;70.67;;;35.27;;
7021;SDS011;3552;42.664;23.406;2022-10-22T00:19:11;51.60;;;27.90;;
7021;SDS011;3552;42.664;23.406;2022-10-22T00:21:39;40.47;;;22.93;;
7021;SDS011;3552;42.664;23.406;2022-10-22T00:24:06;61.17;;;29.43;;
7021;SDS011;3552;42.664;23.406;2022-10-22T00:26:33;22.87;;;12.57;;
7021;SDS011;3552;42.664;23.406;2022-10-22T00:29:00;16.03;;;11.33;;
7021;SDS011;3552;42.664;23.406;2022-10-22T00:31:27;21.57;;;12.10;;
7021;SDS011;3552;42.664;23.406;2022-10-22T00:33:54;19.30;;;10.67;;
7021;SDS011;3552;42.664;23.406;2022-10-22T00:36:22;20.10;;;12.17;;
7021;SDS011;3552;42.664;23.406;2022-10-22T00:38:50;22.40;;;11.50;;
7021;SDS011;3552;42.664;23.406;2022-10-22T00:41:17;15.17;;;10.30;;
7021;SDS011;3552;42.664;23.406;2022-10-22T00:43:54;18.07;;;10.47;;
7021;SDS011;3552;42.664;23.406;2022-10-22T00:46:23;15.67;;;10.57;;
7021;SDS011;3552;42.664;23.406;2022-10-22T00:48:50;16.10;;;10.77;;
7021;SDS011;3552;42.664;23.406;2022-10-22T00:51:18;18.27;;;11.20;;
7021;SDS011;3552;42.664;23.406;2022-10-22T00:53:49;16.30;;;10.63;;
7021;SDS011;3552;42.664;23.406;2022-10-22T00:56:20;18.13;;;11.63;;
7021;SDS011;3552;42.664;23.406;2022-10-22T00:58:48;22.77;;;11.53;;
7021;SDS011;3552;42.664;23.406;2022-10-22T01:01:20;17.17;;;10.27;;
7021;SDS011;3552;42.664;23.406;2022-10-22T01:03:51;17.73;;;10.80;;
7021;SDS011;3552;42.664;23.406;2022-10-22T01:06:18;15.27;;;10.27;;
7021;SDS011;3552;42.664;23.406;2022-10-22T01:08:52;19.37;;;9.83;;
7021;SDS011;3552;42.664;23.406;2022-10-22T01:11:31;20.37;;;10.67;;
7021;SDS011;3552;42.664;23.406;2022-10-22T01:14:11;16.10;;;10.07;;
7021;SDS011;3552;42.664;23.406;2022-10-22T01:16:45;13.83;;;9.73;;
7021;SDS011;3552;42.664;23.406;2022-10-22T01:19:33;20.13;;;10.97;;
7021;SDS011;3552;42.664;23.406;2022-10-22T01:22:12;14.07;;;9.90;;
7021;SDS011;3552;42.664;23.406;2022-10-22T01:24:49;16.63;;;9.97;;
7021;SDS011;3552;42.664;23.406;2022-10-22T01:27:34;16.27;;;10.30;;
7021;SDS011;3552;42.664;23.406;2022-10-22T01:30:11;14.13;;;10.17;;
7021;SDS011;3552;42.664;23.406;2022-10-22T01:32:41;16.50;;;10.13;;
7021;SDS011;3552;42.664;23.406;2022-10-22T01:35:13;17.23;;;10.50;;
7021;SDS011;3552;42.664;23.406;2022-10-22T01:37:44;15.70;;;10.43;;
7021;SDS011;3552;42.664;23.406;2022-10-22T01:40:14;14.90;;;10.10;;
7021;SDS011;3552;42.664;23.406;2022-10-22T01:42:52;15.33;;;9.90;;
7021;SDS011;3552;42.664;23.406;2022-10-22T01:45:22;19.27;;;9.43;;
7021;SDS011;3552;42.664;23.406;2022-10-22T01:47:52;17.97;;;10.17;;
7021;SDS011;3552;42.664;23.406;2022-10-22T01:50:32;17.67;;;10.43;;
7021;SDS011;3552;42.664;23.406;2022-10-22T01:53:18;14.23;;;10.10;;
7021;SDS011;3552;42.664;23.406;2022-10-22T01:55:54;15.27;;;9.83;;
7021;SDS011;3552;42.664;23.406;2022-10-22T01:58:32;17.20;;;11.83;;
7021;SDS011;3552;42.664;23.406;2022-10-22T02:01:06;17.73;;;11.67;;
7021;SDS011;3552;42.664;23.406;2022-10-22T02:03:42;21.47;;;11.33;;
7021;SDS011;3552;42.664;23.406;2022-10-22T02:06:14;25.73;;;12.83;;
7021;SDS011;3552;42.664;23.406;2022-10-22T02:08:44;20.57;;;11.50;;
7021;SDS011;3552;42.664;23.406;2022-10-22T02:11:13;19.67;;;11.10;;
7021;SDS011;3552;42.664;23.406;2022-10-22T02:13:41;17.80;;;11.60;;
7021;SDS011;3552;42.664;23.406;2022-10-22T02:16:14;21.30;;;11.33;;
7021;SDS011;3552;42.664;23.406;2022-10-22T02:18:46;17.43;;;11.30;;
7021;SDS011;3552;42.664;23.406;2022-10-22T02:21:17;18.20;;;11.57;;
7021;SDS011;3552;42.664;23.406;2022-10-22T02:23:44;21.77;;;12.77;;
7021;SDS011;3552;42.664;23.406;2022-10-22T02:26:13;29.40;;;15.10;;
7021;SDS011;3552;42.664;23.406;2022-10-22T02:28:48;24.97;;;14.43;;
7021;SDS011;3552;42.664;23.406;2022-10-22T02:31:25;23.60;;;13.83;;
7021;SDS011;3552;42.664;23.406;2022-10-22T02:33:54;25.03;;;14.40;;
7021;SDS011;3552;42.664;23.406;2022-10-22T02:36:24;23.00;;;14.90;;
7021;SDS011;3552;42.664;23.406;2022-10-22T02:38:51;25.33;;;15.40;;
7021;SDS011;3552;42.664;23.406;2022-10-22T02:41:19;29.40;;;16.03;;
7021;SDS011;3552;42.664;23.406;2022-10-22T02:43:48;26.17;;;16.70;;
7021;SDS011;3552;42.664;23.406;2022-10-22T02:46:16;27.67;;;17.30;;
7021;SDS011;3552;42.664;23.406;2022-10-22T02:48:45;32.87;;;17.57;;
7021;SDS011;3552;42.664;23.406;2022-10-22T02:51:12;27.50;;;16.97;;
7021;SDS011;3552;42.664;23.406;2022-10-22T02:53:39;24.83;;;15.87;;
7021;SDS011;3552;42.664;23.406;2022-10-22T02:56:06;31.67;;;16.63;;
7021;SDS011;3552;42.664;23.406;2022-10-22T02:58:33;28.37;;;16.47;;
7021;SDS011;3552;42.664;23.406;2022-10-22T03:01:00;28.90;;;15.80;;
7021;SDS011;3552;42.664;23.406;2022-10-22T03:03:27;24.97;;;14.43;;
7021;SDS011;3552;42.664;23.406;2022-10-22T03:05:55;22.70;;;15.23;;
7021;SDS011;3552;42.664;23.406;2022-10-22T03:08:22;27.17;;;15.50;;
7021;SDS011;3552;42.664;23.406;2022-10-22T03:10:49;31.47;;;15.67;;
7021;SDS011;3552;42.664;23.406;2022-10-22T03:13:16;27.97;;;15.07;;
7021;SDS011;3552;42.664;23.406;2022-10-22T03:15:43;29.97;;;15.53;;
7021;SDS011;3552;42.664;23.406;2022-10-22T03:18:10;27.90;;;16.00;;
7021;SDS011;3552;42.664;23.406;2022-10-22T03:20:37;32.13;;;16.37;;
7021;SDS011;3552;42.664;23.406;2022-10-22T03:23:05;35.57;;;16.60;;
7021;SDS011;3552;42.664;23.406;2022-10-22T03:25:32;29.57;;;16.60;;
7021;SDS011;3552;42.664;23.406;2022-10-22T03:28:02;29.93;;;16.47;;
7021;SDS011;3552;42.664;23.406;2022-10-22T03:30:30;31.10;;;16.87;;
7021;SDS011;3552;42.664;23.406;2022-10-22T03:32:57;26.20;;;16.27;;
7021;SDS011;3552;42.664;23.406;2022-10-22T03:35:24;31.83;;;15.97;;
7021;SDS011;3552;42.664;23.406;2022-10-22T03:37:51;37.40;;;17.30;;
7021;SDS011;3552;42.664;23.406;2022-10-22T03:40:20;33.93;;;15.67;;
7021;SDS011;3552;42.664;23.406;2022-10-22T03:42:48;29.33;;;16.50;;
7021;SDS011;3552;42.664;23.406;2022-10-22T03:45:15;34.40;;;17.37;;
7021;SDS011;3552;42.664;23.406;2022-10-22T03:47:41;31.57;;;17.07;;
7021;SDS011;3552;42.664;23.406;2022-10-22T03:50:09;32.73;;;17.93;;
7021;SDS011;3552;42.664;23.406;2022-10-22T03:52:36;38.53;;;19.23;;
7021;SDS011;3552;42.664;23.406;2022-10-22T03:55:04;35.70;;;19.80;;
7021;SDS011;3552;42.664;23.406;2022-10-22T03:57:34;29.70;;;18.87;;
7021;SDS011;3552;42.664;23.406;2022-10-22T04:00:02;34.87;;;19.83;;
7021;SDS011;3552;42.664;23.406;2022-10-22T04:02:30;35.47;;;19.93;;
7021;SDS011;3552;42.664;23.406;2022-10-22T04:04:57;38.30;;;21.07;;
7021;SDS011;3552;42.664;23.406;2022-10-22T04:07:24;37.63;;;20.63;;
7021;SDS011;3552;42.664;23.406;2022-10-22T04:09:50;35.17;;;19.70;;
7021;SDS011;3552;42.664;23.406;2022-10-22T04:12:17;38.70;;;20.73;;
7021;SDS011;3552;42.664;23.406;2022-10-22T04:14:47;43.70;;;19.70;;
7021;SDS011;3552;42.664;23.406;2022-10-22T04:17:14;43.70;;;21.13;;
7021;SDS011;3552;42.664;23.406;2022-10-22T04:19:41;44.07;;;20.93;;
7021;SDS011;3552;42.664;23.406;2022-10-22T04:22:08;36.33;;;20.43;;
7021;SDS011;3552;42.664;23.406;2022-10-22T04:24:36;39.93;;;20.17;;
7021;SDS011;3552;42.664;23.406;2022-10-22T04:27:03;41.73;;;20.40;;
7021;SDS011;3552;42.664;23.406;2022-10-22T04:29:30;36.40;;;20.77;;
7021;SDS011;3552;42.664;23.406;2022-10-22T04:31:58;39.57;;;20.20;;
7021;SDS011;3552;42.664;23.406;2022-10-22T04:34:26;43.67;;;21.47;;
7021;SDS011;3552;42.664;23.406;2022-10-22T04:36:53;37.67;;;20.50;;
7021;SDS011;3552;42.664;23.406;2022-10-22T04:39:20;36.70;;;20.57;;
7021;SDS011;3552;42.664;23.406;2022-10-22T04:41:47;38.87;;;20.27;;
7021;SDS011;3552;42.664;23.406;2022-10-22T04:44:14;44.67;;;20.80;;
7021;SDS011;3552;42.664;23.406;2022-10-22T04:46:41;37.73;;;21.97;;
7021;SDS011;3552;42.664;23.406;2022-10-22T04:49:10;38.20;;;21.47;;
7021;SDS011;3552;42.664;23.406;2022-10-22T04:51:36;35.90;;;19.83;;
7021;SDS011;3552;42.664;23.406;2022-10-22T04:54:03;70.27;;;21.43;;
7021;SDS011;3552;42.664;23.406;2022-10-22T04:56:30;45.43;;;20.43;;
7021;SDS011;3552;42.664;23.406;2022-10-22T04:58:57;58.33;;;20.67;;
7021;SDS011;3552;42.664;23.406;2022-10-22T05:01:27;49.03;;;21.23;;
7021;SDS011;3552;42.664;23.406;2022-10-22T05:03:55;47.53;;;21.73;;
7021;SDS011;3552;42.664;23.406;2022-10-22T05:06:26;44.83;;;20.97;;
7021;SDS011;3552;42.664;23.406;2022-10-22T05:08:54;51.63;;;19.70;;
7021;SDS011;3552;42.664;23.406;2022-10-22T05:11:24;60.30;;;24.90;;
7021;SDS011;3552;42.664;23.406;2022-10-22T05:13:54;59.30;;;28.17;;
7021;SDS011;3552;42.664;23.406;2022-10-22T05:16:23;53.07;;;24.77;;
7021;SDS011;3552;42.664;23.406;2022-10-22T05:18:50;40.27;;;19.70;;
7021;SDS011;3552;42.664;23.406;2022-10-22T05:21:18;37.07;;;19.43;;
7021;SDS011;3552;42.664;23.406;2022-10-22T05:23:48;42.00;;;20.83;;
7021;SDS011;3552;42.664;23.406;2022-10-22T05:26:16;42.57;;;22.03;;
7021;SDS011;3552;42.664;23.406;2022-10-22T05:28:45;53.47;;;23.47;;
7021;SDS011;3552;42.664;23.406;2022-10-22T05:31:12;39.67;;;22.40;;
7021;SDS011;3552;42.664;23.406;2022-10-22T05:33:39;38.90;;;21.73;;
7021;SDS011;3552;42.664;23.406;2022-10-22T05:36:07;38.13;;;21.13;;
7021;SDS011;3552;42.664;23.406;2022-10-22T05:38:37;37.77;;;20.80;;
7021;SDS011;3552;42.664;23.406;2022-10-22T05:41:06;39.70;;;19.47;;
7021;SDS011;3552;42.664;23.406;2022-10-22T05:43:34;45.57;;;19.93;;
7021;SDS011;3552;42.664;23.406;2022-10-22T05:46:02;49.03;;;23.43;;
7021;SDS011;3552;42.664;23.406;2022-10-22T05:48:31;47.47;;;21.53;;
7021;SDS011;3552;42.664;23.406;2022-10-22T05:51:00;45.40;;;23.90;;
7021;SDS011;3552;42.664;23.406;2022-10-22T05:53:30;47.93;;;22.93;;
7021;SDS011;3552;42.664;23.406;2022-10-22T05:56:01;48.37;;;22.30;;
7021;SDS011;3552;42.664;23.406;2022-10-22T05:58:30;54.10;;;23.40;;
7021;SDS011;3552;42.664;23.406;2022-10-22T06:01:01;72.57;;;32.50;;
7021;SDS011;3552;42.664;23.406;2022-10-22T06:03:28;53.77;;;26.63;;
7021;SDS011;3552;42.664;23.406;2022-10-22T06:05:56;63.23;;;27.87;;
7021;SDS011;3552;42.664;23.406;2022-10-22T06:08:26;48.33;;;22.93;;
7021;SDS011;3552;42.664;23.406;2022-10-22T06:10:53;41.10;;;24.30;;
7021;SDS011;3552;42.664;23.406;2022-10-22T06:13:20;40.47;;;21.80;;
7021;SDS011;3552;42.664;23.406;2022-10-22T06:15:49;45.27;;;23.50;;
7021;SDS011;3552;42.664;23.406;2022-10-22T06:18:17;39.73;;;21.17;;
7021;SDS011;3552;42.664;23.406;2022-10-22T06:20:44;35.20;;;21.63;;
7021;SDS011;3552;42.664;23.406;2022-10-22T06:23:12;38.20;;;19.93;;
7021;SDS011;3552;42.664;23.406;2022-10-22T06:25:39;37.07;;;19.80;;
7021;SDS011;3552;42.664;23.406;2022-10-22T06:28:07;49.70;;;20.37;;
7021;SDS011;3552;42.664;23.406;2022-10-22T06:30:35;37.97;;;19.37;;
7021;SDS011;3552;42.664;23.406;2022-10-22T06:33:04;35.70;;;19.27;;
7021;SDS011;3552;42.664;23.406;2022-10-22T06:35:31;36.63;;;18.27;;
7021;SDS011;3552;42.664;23.406;2022-10-22T06:37:58;33.70;;;18.03;;
7021;SDS011;3552;42.664;23.406;2022-10-22T06:40:26;37.30;;;18.43;;
7021;SDS011;3552;42.664;23.406;2022-10-22T06:42:53;33.47;;;18.73;;
7021;SDS011;3552;42.664;23.406;2022-10-22T06:45:21;39.73;;;17.97;;
7021;SDS011;3552;42.664;23.406;2022-10-22T06:47:48;37.93;;;18.13;;
7021;SDS011;3552;42.664;23.406;2022-10-22T06:50:16;32.90;;;16.87;;
7021;SDS011;3552;42.664;23.406;2022-10-22T06:52:43;32.30;;;17.67;;
7021;SDS011;3552;42.664;23.406;2022-10-22T06:55:10;29.67;;;18.00;;
7021;SDS011;3552;42.664;23.406;2022-10-22T06:57:37;30.73;;;18.47;;
7021;SDS011;3552;42.664;23.406;2022-10-22T07:00:04;31.83;;;18.20;;
7021;SDS011;3552;42.664;23.406;2022-10-22T07:02:32;29.27;;;18.70;;
7021;SDS011;3552;42.664;23.406;2022-10-22T07:04:59;27.10;;;18.10;;
7021;SDS011;3552;42.664;23.406;2022-10-22T07:07:28;36.37;;;18.57;;
7021;SDS011;3552;42.664;23.406;2022-10-22T07:09:55;28.43;;;18.33;;
7021;SDS011;3552;42.664;23.406;2022-10-22T07:12:21;35.53;;;19.23;;
7021;SDS011;3552;42.664;23.406;2022-10-22T07:14:49;32.03;;;19.10;;
7021;SDS011;3552;42.664;23.406;2022-10-22T07:17:16;35.20;;;19.37;;
7021;SDS011;3552;42.664;23.406;2022-10-22T07:19:43;31.47;;;18.23;;
7021;SDS011;3552;42.664;23.406;2022-10-22T07:22:10;28.73;;;17.77;;
7021;SDS011;3552;42.664;23.406;2022-10-22T07:24:38;30.00;;;18.57;;
7021;SDS011;3552;42.664;23.406;2022-10-22T07:27:05;37.47;;;21.83;;
7021;SDS011;3552;42.664;23.406;2022-10-22T07:29:32;45.83;;;20.73;;
7021;SDS011;3552;42.664;23.406;2022-10-22T07:32:00;28.13;;;18.07;;
7021;SDS011;3552;42.664;23.406;2022-10-22T07:34:27;32.30;;;18.87;;
7021;SDS011;3552;42.664;23.406;2022-10-22T07:36:54;36.17;;;19.23;;
7021;SDS011;3552;42.664;23.406;2022-10-22T07:39:21;34.97;;;18.17;;
7021;SDS011;3552;42.664;23.406;2022-10-22T07:41:51;29.30;;;18.70;;
7021;SDS011;3552;42.664;23.406;2022-10-22T07:44:18;29.73;;;17.87;;
7021;SDS011;3552;42.664;23.406;2022-10-22T07:46:45;31.80;;;19.10;;
7021;SDS011;3552;42.664;23.406;2022-10-22T07:49:13;29.47;;;18.70;;
7021;SDS011;3552;42.664;23.406;2022-10-22T07:51:40;29.17;;;18.97;;
7021;SDS011;3552;42.664;23.406;2022-10-22T07:54:07;37.80;;;18.87;;
7021;SDS011;3552;42.664;23.406;2022-10-22T07:56:34;34.23;;;19.30;;
7021;SDS011;3552;42.664;23.406;2022-10-22T07:59:02;37.90;;;17.80;;
7021;SDS011;3552;42.664;23.406;2022-10-22T08:01:29;52.87;;;19.37;;
7021;SDS011;3552;42.664;23.406;2022-10-22T08:03:56;32.57;;;17.93;;
7021;SDS011;3552;42.664;23.406;2022-10-22T08:06:23;30.83;;;18.23;;
7021;SDS011;3552;42.664;23.406;2022-10-22T08:08:50;34.30;;;19.73;;
7021;SDS011;3552;42.664;23.406;2022-10-22T08:11:17;32.67;;;19.20;;
7021;SDS011;3552;42.664;23.406;2022-10-22T08:13:44;31.90;;;18.90;;
7021;SDS011;3552;42.664;23.406;2022-10-22T08:16:13;32.03;;;18.07;;
7021;SDS011;3552;42.664;23.406;2022-10-22T08:18:40;31.80;;;18.87;;
7021;SDS011;3552;42.664;23.406;2022-10-22T08:21:07;28.73;;;18.03;;
7021;SDS011;3552;42.664;23.406;2022-10-22T08:23:34;28.23;;;17.87;;
7021;SDS011;3552;42.664;23.406;2022-10-22T08:26:01;31.77;;;18.17;;
7021;SDS011;3552;42.664;23.406;2022-10-22T08:28:28;35.17;;;18.40;;
7021;SDS011;3552;42.664;23.406;2022-10-22T08:31:00;28.87;;;18.17;;
7021;SDS011;3552;42.664;23.406;2022-10-22T08:33:28;30.63;;;18.57;;
7021;SDS011;3552;42.664;23.406;2022-10-22T08:35:57;31.43;;;18.13;;
7021;SDS011;3552;42.664;23.406;2022-10-22T08:38:24;38.43;;;18.10;;
7021;SDS011;3552;42.664;23.406;2022-10-22T08:40:51;31.73;;;17.83;;
7021;SDS011;3552;42.664;23.406;2022-10-22T08:43:27;34.10;;;18.03;;
7021;SDS011;3552;42.664;23.406;2022-10-22T08:46:07;25.03;;;17.70;;
7021;SDS011;3552;42.664;23.406;2022-10-22T08:48:42;24.40;;;16.63;;
7021;SDS011;3552;42.664;23.406;2022-10-22T08:51:12;26.03;;;17.13;;
7021;SDS011;3552;42.664;23.406;2022-10-22T08:53:44;25.33;;;16.37;;
7021;SDS011;3552;42.664;23.406;2022-10-22T08:56:20;27.33;;;17.30;;
7021;SDS011;3552;42.664;23.406;2022-10-22T08:58:49;31.13;;;16.17;;
7021;SDS011;3552;42.664;23.406;2022-10-22T09:01:28;22.20;;;15.03;;
7021;SDS011;3552;42.664;23.406;2022-10-22T09:04:03;25.87;;;15.60;;
7021;SDS011;3552;42.664;23.406;2022-10-22T09:06:32;22.60;;;13.03;;
7021;SDS011;3552;42.664;23.406;2022-10-22T09:09:04;23.13;;;16.43;;
7021;SDS011;3552;42.664;23.406;2022-10-22T09:11:38;24.17;;;16.43;;
7021;SDS011;3552;42.664;23.406;2022-10-22T09:14:09;19.87;;;14.57;;
7021;SDS011;3552;42.664;23.406;2022-10-22T09:16:42;17.97;;;13.20;;
7021;SDS011;3552;42.664;23.406;2022-10-22T09:19:22;21.50;;;14.40;;
7021;SDS011;3552;42.664;23.406;2022-10-22T09:21:57;23.80;;;14.30;;
7021;SDS011;3552;42.664;23.406;2022-10-22T09:24:33;18.40;;;13.40;;
7021;SDS011;3552;42.664;23.406;2022-10-22T09:27:06;24.20;;;13.60;;
7021;SDS011;3552;42.664;23.406;2022-10-22T09:29:36;20.13;;;12.33;;
7021;SDS011;3552;42.664;23.406;2022-10-22T09:32:04;25.73;;;13.93;;
7021;SDS011;3552;42.664;23.406;2022-10-22T09:34:34;26.77;;;14.07;;
7021;SDS011;3552;42.664;23.406;2022-10-22T09:37:04;21.90;;;14.27;;
7021;SDS011;3552;42.664;23.406;2022-10-22T09:39:33;19.63;;;13.13;;
7021;SDS011;3552;42.664;23.406;2022-10-22T09:42:02;20.67;;;13.77;;
7021;SDS011;3552;42.664;23.406;2022-10-22T09:44:30;24.03;;;14.03;;
7021;SDS011;3552;42.664;23.406;2022-10-22T09:46:59;25.77;;;14.80;;
7021;SDS011;3552;42.664;23.406;2022-10-22T09:49:29;24.83;;;13.73;;
7021;SDS011;3552;42.664;23.406;2022-10-22T09:52:06;27.87;;;15.13;;
7021;SDS011;3552;42.664;23.406;2022-10-22T09:54:51;25.83;;;14.77;;
7021;SDS011;3552;42.664;23.406;2022-10-22T09:57:20;25.20;;;14.50;;
7021;SDS011;3552;42.664;23.406;2022-10-22T09:59:48;24.93;;;13.20;;
7021;SDS011;3552;42.664;23.406;2022-10-22T10:02:18;27.47;;;13.87;;
7021;SDS011;3552;42.664;23.406;2022-10-22T10:04:47;19.00;;;12.83;;
7021;SDS011;3552;42.664;23.406;2022-10-22T10:07:18;20.90;;;13.10;;
7021;SDS011;3552;42.664;23.406;2022-10-22T10:09:46;24.53;;;13.57;;
7021;SDS011;3552;42.664;23.406;2022-10-22T10:12:22;17.53;;;12.63;;
7021;SDS011;3552;42.664;23.406;2022-10-22T10:15:02;17.97;;;12.57;;
7021;SDS011;3552;42.664;23.406;2022-10-22T10:17:39;24.37;;;13.80;;
7021;SDS011;3552;42.664;23.406;2022-10-22T10:20:16;21.53;;;12.27;;
7021;SDS011;3552;42.664;23.406;2022-10-22T10:22:57;24.83;;;13.30;;
7021;SDS011;3552;42.664;23.406;2022-10-22T10:25:36;24.47;;;12.87;;
7021;SDS011;3552;42.664;23.406;2022-10-22T10:28:16;19.40;;;12.27;;
7021;SDS011;3552;42.664;23.406;2022-10-22T10:30:53;18.83;;;12.23;;
7021;SDS011;3552;42.664;23.406;2022-10-22T10:33:31;19.40;;;12.90;;
7021;SDS011;3552;42.664;23.406;2022-10-22T10:36:07;15.63;;;12.23;;
7021;SDS011;3552;42.664;23.406;2022-10-22T10:38:46;19.10;;;10.90;;
7021;SDS011;3552;42.664;23.406;2022-10-22T10:41:24;19.67;;;11.50;;
7021;SDS011;3552;42.664;23.406;2022-10-22T10:44:05;22.57;;;11.83;;
7021;SDS011;3552;42.664;23.406;2022-10-22T10:46:46;20.07;;;12.37;;
7021;SDS011;3552;42.664;23.406;2022-10-22T10:49:21;25.67;;;12.60;;
7021;SDS011;3552;42.664;23.406;2022-10-22T10:51:52;13.93;;;10.83;;
7021;SDS011;3552;42.664;23.406;2022-10-22T10:54:32;21.77;;;11.70;;
7021;SDS011;3552;42.664;23.406;2022-10-22T10:57:08;21.00;;;11.93;;
7021;SDS011;3552;42.664;23.406;2022-10-22T10:59:48;16.77;;;11.37;;
7021;SDS011;3552;42.664;23.406;2022-10-22T11:02:37;22.87;;;10.70;;
7021;SDS011;3552;42.664;23.406;2022-10-22T11:05:27;15.80;;;10.90;;
7021;SDS011;3552;42.664;23.406;2022-10-22T11:08:00;25.07;;;11.13;;
7021;SDS011;3552;42.664;23.406;2022-10-22T11:10:32;16.73;;;10.97;;
7021;SDS011;3552;42.664;23.406;2022-10-22T11:13:06;16.47;;;10.87;;
7021;SDS011;3552;42.664;23.406;2022-10-22T11:15:42;18.63;;;11.03;;
7021;SDS011;3552;42.664;23.406;2022-10-22T11:18:16;18.40;;;10.70;;
7021;SDS011;3552;42.664;23.406;2022-10-22T11:20:48;16.33;;;10.10;;
7021;SDS011;3552;42.664;23.406;2022-10-22T11:23:21;20.73;;;9.93;;
7021;SDS011;3552;42.664;23.406;2022-10-22T11:25:54;15.57;;;9.50;;
7021;SDS011;3552;42.664;23.406;2022-10-22T11:28:23;15.10;;;9.80;;
7021;SDS011;3552;42.664;23.406;2022-10-22T11:30:56;21.50;;;8.87;;
7021;SDS011;3552;42.664;23.406;2022-10-22T11:33:27;13.07;;;8.37;;
7021;SDS011;3552;42.664;23.406;2022-10-22T11:36:04;18.37;;;8.63;;
7021;SDS011;3552;42.664;23.406;2022-10-22T11:38:34;15.67;;;8.67;;
7021;SDS011;3552;42.664;23.406;2022-10-22T11:41:05;16.70;;;9.40;;
7021;SDS011;3552;42.664;23.406;2022-10-22T11:43:50;17.07;;;9.07;;
7021;SDS011;3552;42.664;23.406;2022-10-22T11:46:26;15.70;;;9.07;;
7021;SDS011;3552;42.664;23.406;2022-10-22T11:49:14;18.03;;;9.90;;
7021;SDS011;3552;42.664;23.406;2022-10-22T11:51:43;15.20;;;9.43;;
7021;SDS011;3552;42.664;23.406;2022-10-22T11:54:28;16.57;;;8.13;;
7021;SDS011;3552;42.664;23.406;2022-10-22T11:57:15;16.90;;;9.40;;
7021;SDS011;3552;42.664;23.406;2022-10-22T11:59:46;13.13;;;8.33;;
7021;SDS011;3552;42.664;23.406;2022-10-22T12:02:23;14.30;;;8.80;;
7021;SDS011;3552;42.664;23.406;2022-10-22T12:07:58;13.10;;;8.20;;
7021;SDS011;3552;42.664;23.406;2022-10-22T12:10:32;12.40;;;8.37;;
7021;SDS011;3552;42.664;23.406;2022-10-22T12:13:04;17.17;;;9.07;;
7021;SDS011;3552;42.664;23.406;2022-10-22T12:15:45;12.77;;;7.60;;
7021;SDS011;3552;42.664;23.406;2022-10-22T12:18:14;14.57;;;8.20;;
7021;SDS011;3552;42.664;23.406;2022-10-22T12:20:42;14.03;;;8.80;;
7021;SDS011;3552;42.664;23.406;2022-10-22T12:23:09;19.47;;;8.27;;
7021;SDS011;3552;42.664;23.406;2022-10-22T12:25:38;12.77;;;7.83;;
7021;SDS011;3552;42.664;23.406;2022-10-22T12:28:08;15.47;;;8.90;;
7021;SDS011;3552;42.664;23.406;2022-10-22T12:30:36;10.07;;;8.60;;
7021;SDS011;3552;42.664;23.406;2022-10-22T12:33:06;16.97;;;8.80;;
7021;SDS011;3552;42.664;23.406;2022-10-22T12:35:44;15.87;;;8.53;;
7021;SDS011;3552;42.664;23.406;2022-10-22T12:38:13;18.90;;;8.83;;
7021;SDS011;3552;42.664;23.406;2022-10-22T12:40:42;15.20;;;8.60;;
7021;SDS011;3552;42.664;23.406;2022-10-22T12:43:15;15.43;;;8.50;;
7021;SDS011;3552;42.664;23.406;2022-10-22T12:45:44;14.03;;;8.00;;
7021;SDS011;3552;42.664;23.406;2022-10-22T12:48:15;15.30;;;8.20;;
7021;SDS011;3552;42.664;23.406;2022-10-22T12:50:44;12.83;;;8.33;;
7021;SDS011;3552;42.664;23.406;2022-10-22T12:53:16;12.90;;;8.50;;
7021;SDS011;3552;42.664;23.406;2022-10-22T12:55:48;12.20;;;7.80;;
7021;SDS011;3552;42.664;23.406;2022-10-22T12:58:19;15.17;;;8.67;;
7021;SDS011;3552;42.664;23.406;2022-10-22T13:00:52;11.50;;;9.30;;
7021;SDS011;3552;42.664;23.406;2022-10-22T13:03:25;11.40;;;9.10;;
7021;SDS011;3552;42.664;23.406;2022-10-22T13:05:54;12.60;;;8.40;;
7021;SDS011;3552;42.664;23.406;2022-10-22T13:08:21;11.73;;;8.57;;
7021;SDS011;3552;42.664;23.406;2022-10-22T13:10:52;19.30;;;9.70;;
7021;SDS011;3552;42.664;23.406;2022-10-22T13:13:31;17.47;;;8.33;;
7021;SDS011;3552;42.664;23.406;2022-10-22T13:16:12;19.70;;;7.90;;
7021;SDS011;3552;42.664;23.406;2022-10-22T13:18:41;15.83;;;8.77;;
7021;SDS011;3552;42.664;23.406;2022-10-22T13:24:17;19.47;;;9.10;;
7021;SDS011;3552;42.664;23.406;2022-10-22T13:26:47;11.33;;;8.03;;
7021;SDS011;3552;42.664;23.406;2022-10-22T13:29:17;12.13;;;8.00;;
7021;SDS011;3552;42.664;23.406;2022-10-22T13:31:47;12.50;;;8.43;;
7021;SDS011;3552;42.664;23.406;2022-10-22T13:34:16;14.50;;;8.00;;
7021;SDS011;3552;42.664;23.406;2022-10-22T13:36:45;18.17;;;9.13;;
7021;SDS011;3552;42.664;23.406;2022-10-22T13:39:12;20.43;;;8.47;;
7021;SDS011;3552;42.664;23.406;2022-10-22T13:41:43;13.97;;;8.10;;
7021;SDS011;3552;42.664;23.406;2022-10-22T13:44:10;17.77;;;8.70;;
7021;SDS011;3552;42.664;23.406;2022-10-22T13:46:38;15.27;;;7.87;;
7021;SDS011;3552;42.664;23.406;2022-10-22T13:49:09;20.60;;;9.30;;
7021;SDS011;3552;42.664;23.406;2022-10-22T13:51:39;24.33;;;9.27;;
7021;SDS011;3552;42.664;23.406;2022-10-22T13:54:08;14.27;;;9.10;;
7021;SDS011;3552;42.664;23.406;2022-10-22T13:56:40;21.90;;;8.83;;
7021;SDS011;3552;42.664;23.406;2022-10-22T13:59:07;33.33;;;9.67;;
7021;SDS011;3552;42.664;23.406;2022-10-22T14:01:34;27.13;;;9.20;;
7021;SDS011;3552;42.664;23.406;2022-10-22T14:04:04;26.50;;;10.93;;
7021;SDS011;3552;42.664;23.406;2022-10-22T14:06:33;21.37;;;8.50;;
7021;SDS011;3552;42.664;23.406;2022-10-22T14:09:02;33.40;;;11.07;;
7021;SDS011;3552;42.664;23.406;2022-10-22T14:11:30;20.27;;;9.03;;
7021;SDS011;3552;42.664;23.406;2022-10-22T14:13:59;19.00;;;9.00;;
7021;SDS011;3552;42.664;23.406;2022-10-22T14:16:27;18.07;;;8.40;;
7021;SDS011;3552;42.664;23.406;2022-10-22T14:18:57;21.30;;;8.40;;
7021;SDS011;3552;42.664;23.406;2022-10-22T14:21:26;23.60;;;9.20;;
7021;SDS011;3552;42.664;23.406;2022-10-22T14:23:55;28.90;;;9.40;;
7021;SDS011;3552;42.664;23.406;2022-10-22T14:26:23;20.73;;;9.03;;
7021;SDS011;3552;42.664;23.406;2022-10-22T14:28:52;26.10;;;8.67;;
7021;SDS011;3552;42.664;23.406;2022-10-22T14:31:20;22.10;;;9.30;;
7021;SDS011;3552;42.664;23.406;2022-10-22T14:33:47;29.37;;;9.93;;
7021;SDS011;3552;42.664;23.406;2022-10-22T14:36:15;48.30;;;10.70;;
7021;SDS011;3552;42.664;23.406;2022-10-22T14:38:45;45.60;;;11.57;;
7021;SDS011;3552;42.664;23.406;2022-10-22T14:41:16;20.50;;;8.70;;
7021;SDS011;3552;42.664;23.406;2022-10-22T14:43:45;22.90;;;8.37;;
7021;SDS011;3552;42.664;23.406;2022-10-22T14:46:13;27.00;;;10.13;;
7021;SDS011;3552;42.664;23.406;2022-10-22T14:48:41;28.07;;;8.90;;
7021;SDS011;3552;42.664;23.406;2022-10-22T14:51:10;17.40;;;9.30;;
7021;SDS011;3552;42.664;23.406;2022-10-22T14:53:38;29.20;;;8.57;;
7021;SDS011;3552;42.664;23.406;2022-10-22T14:56:07;31.10;;;8.90;;
7021;SDS011;3552;42.664;23.406;2022-10-22T14:58:36;31.27;;;9.47;;
7021;SDS011;3552;42.664;23.406;2022-10-22T15:01:04;52.03;;;10.87;;
7021;SDS011;3552;42.664;23.406;2022-10-22T15:03:31;35.33;;;10.10;;